Arklow Raider — EIXS — position and weather

sailwx.info

Track history (hours):
 
Tides and Currents Weather Stations Pressure Air Temp Water Temp Dewpoint Dewpoint Depression Visibility Wind Speed Wind Dir Waves Ship Positions

Arklow Raider

Last reported at 2018-Apr-23 11:27 UTC. Time now 2018-Apr-23 11:47 UTC.
Position N 43°21' W 003°04'.

Length 90 m; draft 4 m.

Type: Cargo ship. MMSI: 250001268.

Date/timePositionNaut miles runAvg speedWind from/ knotsBaromVisibWave heightAir tempDewpointWater temp
2018-Apr-23 11:27N 43°21' W 003°04'0 0.0
2018-Apr-23 11:00N 43°21' W 003°04'0 0.0
2018-Apr-23 10:30N 43°21' W 003°04'0 0.0
2018-Apr-23 10:00N 43°21' W 003°04'0 0.0
2018-Apr-23 09:24N 43°21' W 003°04'0 0.0
2018-Apr-23 09:00N 43°21' W 003°04'0 0.0
2018-Apr-23 08:30N 43°21' W 003°04'0 0.0
2018-Apr-23 07:57N 43°21' W 003°04'0 0.0
2018-Apr-23 07:30N 43°21' W 003°04'0 0.0
2018-Apr-23 06:57N 43°21' W 003°04'0 0.0
2018-Apr-23 06:30N 43°21' W 003°04'0 0.0
2018-Apr-23 05:57N 43°21' W 003°04'0 0.0
2018-Apr-23 05:27N 43°21' W 003°04'0 0.0
2018-Apr-23 05:00N 43°21' W 003°04'0 0.0
2018-Apr-23 04:27N 43°21' W 003°04'0 0.0
2018-Apr-23 03:57N 43°21' W 003°04'0 0.0
2018-Apr-23 03:30N 43°21' W 003°04'0 0.0
2018-Apr-23 02:57N 43°21' W 003°04'0 0.0
2018-Apr-23 02:30N 43°21' W 003°04'0 0.0
2018-Apr-23 02:00N 43°21' W 003°04'0 0.0
2018-Apr-23 01:30N 43°21' W 003°04'0 0.0
2018-Apr-23 01:00N 43°21' W 003°04'0 0.0
2018-Apr-23 00:27N 43°21' W 003°04'0 0.0
2018-Apr-23 00:00N 43°21' W 003°04'0 0.0
2018-Apr-22 23:30N 43°21' W 003°04'0 0.0
2018-Apr-22 23:00N 43°21' W 003°04'0 0.0
2018-Apr-22 22:30N 43°21' W 003°04'0 0.0
2018-Apr-22 21:57N 43°21' W 003°04'0 0.0
2018-Apr-22 21:30N 43°21' W 003°04'0 0.0
2018-Apr-22 20:57N 43°21' W 003°04'0 0.0
2018-Apr-22 20:30N 43°21' W 003°04'0 0.0
2018-Apr-22 20:00N 43°21' W 003°04'0 0.0
2018-Apr-22 19:30N 43°21' W 003°04'0 0.0
2018-Apr-22 19:00N 43°21' W 003°04'0 0.0
2018-Apr-22 18:30N 43°21' W 003°04'0 0.1
2018-Apr-22 18:00N 43°21' W 003°03'2 3.6
2018-Apr-22 17:30N 43°23' W 003°05'5 9.6
2018-Apr-22 17:00N 43°27' W 003°08'612.2
2018-Apr-22 16:30N 43°32' W 003°12'612.4
2018-Apr-22 16:00N 43°38' W 003°17'612.2
2018-Apr-22 15:30N 43°43' W 003°22'612.2
2018-Apr-22 14:59N 43°48' W 003°26'612.4
2018-Apr-22 14:30N 43°53' W 003°30'15312.6
2018-Apr-22 02:19N 46°05' W 005°22'412.8
2018-Apr-22 02:00N 46°08' W 005°25'612.7
2018-Apr-22 01:30N 46°13' W 005°30'7012.6
2018-Apr-21 19:58N 47°13' W 006°22'23212.2
2018-Apr-21 00:59N 50°31' W 009°25'1111.7
2018-Apr-21 00:01N 50°41' W 009°34'111.9
2018-Apr-20 23:58N 50°41' W 009°35'611.9
2018-Apr-20 23:30N 50°46' W 009°40'2112.1
2018-Apr-20 21:43N 51°05' W 009°57'412.2
2018-Apr-20 21:22N 51°09' W 010°00'612.3
2018-Apr-20 20:51N 51°14' W 010°06'412.3
2018-Apr-20 20:30N 51°18' W 010°09'612.4
2018-Apr-20 20:01N 51°23' W 010°14'712.4
2018-Apr-20 19:28N 51°29' W 010°20'711.9
2018-Apr-20 18:53N 51°35' W 010°26'2411.2
2018-Apr-20 16:44N 51°57' W 010°41'311.1
2018-Apr-20 16:30N 51°59' W 010°42'8 9.8
2018-Apr-20 15:38N 52°07' W 010°39'110.6
2018-Apr-20 15:30N 52°08' W 010°37'510.7
2018-Apr-20 15:00N 52°11' W 010°30'610.9
2018-Apr-20 14:30N 52°15' W 010°23'1111.3
2018-Apr-20 13:30N 52°22' W 010°09'611.4
2018-Apr-20 13:01N 52°25' W 010°01'611.2
2018-Apr-20 12:30N 52°28' W 009°54'711.9
2018-Apr-20 11:57N 52°32' W 009°45'5 0.1
2018-Apr-19 03:06N 52°35' W 009°39'1 7.7
2018-Apr-19 03:00N 52°35' W 009°40'3 6.4
2018-Apr-19 02:29N 52°33' W 009°45'7 7.7
2018-Apr-19 01:31N 52°33' W 009°57'2 9.3
2018-Apr-19 01:19N 52°34' W 009°58'310.3
2018-Apr-19 00:59N 52°38' W 009°59'1811.1
2018-Apr-18 23:23N 52°55' W 010°06'510.8
2018-Apr-18 22:53N 53°00' W 010°08'610.9
2018-Apr-18 22:20N 53°06' W 010°11'410.5
2018-Apr-18 21:59N 53°10' W 010°12'510.2
2018-Apr-18 21:27N 53°15' W 010°14'510.2
2018-Apr-18 20:57N 53°20' W 010°17'4 9.2
2018-Apr-18 20:30N 53°24' W 010°18'5 9.0
2018-Apr-18 20:00N 53°28' W 010°19'5 9.1
2018-Apr-18 19:30N 53°33' W 010°21'5 8.9
2018-Apr-18 18:59N 53°37' W 010°22'4 8.7
2018-Apr-18 18:29N 53°42' W 010°22'4 9.1
2018-Apr-18 18:00N 53°46' W 010°22'5 9.0
2018-Apr-18 17:30N 53°51' W 010°23'4 8.9
2018-Apr-18 17:00N 53°55' W 010°23'5 9.2
2018-Apr-18 16:30N 53°60' W 010°23'5 9.0
2018-Apr-18 16:00N 54°04' W 010°23'5 9.5
2018-Apr-18 15:27N 54°09' W 010°22'4 9.4
2018-Apr-18 15:00N 54°13' W 010°20'5 9.2
2018-Apr-18 14:29N 54°18' W 010°18'5 9.5
2018-Apr-18 13:56N 54°21' W 010°11'5 8.8
2018-Apr-18 13:25N 54°24' W 010°05'5 9.1
2018-Apr-18 12:55N 54°27' W 009°60'4 9.0
2018-Apr-18 12:30N 54°30' W 009°55'5 9.3
2018-Apr-18 11:58N 54°33' W 009°48'5 9.3
2018-Apr-18 11:29N 54°36' W 009°43'8 9.4
2018-Apr-18 10:36N 54°42' W 009°32'3 9.6
2018-Apr-18 10:15N 54°44' W 009°28'4 9.5
2018-Apr-18 09:51N 54°46' W 009°22'4 9.4
2018-Apr-18 09:24N 54°49' W 009°17'25 9.3
2018-Apr-18 06:44N 55°05' W 008°44'2 9.1
2018-Apr-18 06:29N 55°06' W 008°41'6 9.0
2018-Apr-18 05:48N 55°10' W 008°33'3 8.7
2018-Apr-18 05:28N 55°12' W 008°29'4 8.7
2018-Apr-18 04:58N 55°15' W 008°23'5 8.6
2018-Apr-18 04:25N 55°18' W 008°17'4 8.3
2018-Apr-18 03:56N 55°22' W 008°13'7 8.8
2018-Apr-18 03:05N 55°29' W 008°08'3 8.5
2018-Apr-18 02:46N 55°31' W 008°06'236 8.2
2018-Apr-16 21:52N 58°42' W 003°50'12 9.4
2018-Apr-16 20:37N 58°42' W 003°27'1 8.6
2018-Apr-16 20:30N 58°42' W 003°26'4 8.1
2018-Apr-16 20:00N 58°43' W 003°18'4 7.2
2018-Apr-16 19:24N 58°43' W 003°10'2 4.8
2018-Apr-16 19:01N 58°43' W 003°06'3 6.8
2018-Apr-16 18:30N 58°41' W 003°00'5 9.6
2018-Apr-16 18:01N 58°37' W 002°55'5 9.7
2018-Apr-16 17:30N 58°36' W 002°46'510.7
2018-Apr-16 17:01N 58°35' W 002°36'26710.9
2018-Apr-15 16:26N 57°45' E 005°41'510.7
2018-Apr-15 16:00N 57°44' E 005°50'611.1
2018-Apr-15 15:27N 57°43' E 006°01'13010.5
2018-Apr-15 03:06N 57°46' E 010°05'310.5
2018-Apr-15 02:46N 57°46' E 010°11'310.3
2018-Apr-15 02:28N 57°47' E 010°17'510.4
2018-Apr-15 02:00N 57°47' E 010°26'510.5
2018-Apr-15 01:30N 57°48' E 010°36'510.7
2018-Apr-15 01:01N 57°48' E 010°46'510.4
2018-Apr-15 00:30N 57°45' E 010°53'510.4
2018-Apr-15 00:01N 57°41' E 011°01'510.7
2018-Apr-14 23:31N 57°37' E 011°07'510.6
2018-Apr-14 23:00N 57°34' E 011°15'510.6
2018-Apr-14 22:30N 57°30' E 011°22'510.5
2018-Apr-14 22:00N 57°26' E 011°27'510.7
2018-Apr-14 21:30N 57°21' E 011°31'510.6
2018-Apr-14 21:01N 57°16' E 011°34'510.5
2018-Apr-14 20:30N 57°11' E 011°37'510.7
2018-Apr-14 20:00N 57°06' E 011°40'510.8
2018-Apr-14 19:30N 57°01' E 011°44'5910.1
2018-Apr-14 13:38N 56°08' E 012°32'211.9
2018-Apr-14 13:30N 56°06' E 012°34'611.3
2018-Apr-14 13:01N 56°02' E 012°40'510.6
2018-Apr-14 12:31N 55°57' E 012°43'510.5
2018-Apr-14 12:00N 55°52' E 012°44'510.6
2018-Apr-14 11:31N 55°46' E 012°42'510.6
2018-Apr-14 11:01N 55°41' E 012°41'510.2
2018-Apr-14 10:31N 55°36' E 012°42'510.2
2018-Apr-14 10:01N 55°31' E 012°42'510.5
2018-Apr-14 09:31N 55°26' E 012°42'510.7
2018-Apr-14 09:00N 55°20' E 012°41'610.5
2018-Apr-14 08:24N 55°17' E 012°50'510.6
2018-Apr-14 07:55N 55°16' E 012°59'3210.6
2018-Apr-14 04:52N 55°14' E 013°55'410.4
2018-Apr-14 04:27N 55°14' E 014°03'510.9
2018-Apr-14 03:58N 55°14' E 014°12'6 9.8
2018-Apr-14 03:22N 55°17' E 014°21'410.4
2018-Apr-14 03:00N 55°20' E 014°25'510.7
2018-Apr-14 02:30N 55°24' E 014°31'610.4
2018-Apr-14 01:56N 55°28' E 014°39'510.5
2018-Apr-14 01:27N 55°31' E 014°47'710.4
2018-Apr-14 00:45N 55°34' E 014°58'310.5
2018-Apr-14 00:26N 55°36' E 015°03'510.5
2018-Apr-14 00:01N 55°38' E 015°10'510.5
2018-Apr-13 23:30N 55°40' E 015°18'510.6
2018-Apr-13 23:00N 55°43' E 015°26'510.6
2018-Apr-13 22:30N 55°46' E 015°34'510.6
2018-Apr-13 22:01N 55°48' E 015°43'510.7
2018-Apr-13 21:31N 55°51' E 015°51'510.6
2018-Apr-13 21:00N 55°53' E 015°59'510.6
2018-Apr-13 20:30N 55°56' E 016°07'510.6
2018-Apr-13 20:01N 55°59' E 016°16'510.6
2018-Apr-13 19:30N 56°01' E 016°24'510.7
2018-Apr-13 19:00N 56°04' E 016°32'1110.7
2018-Apr-13 18:00N 56°10' E 016°48'510.5
2018-Apr-13 17:30N 56°13' E 016°55'610.5
2018-Apr-13 16:59N 56°17' E 017°03'510.5
2018-Apr-13 16:28N 56°20' E 017°11'510.5
2018-Apr-13 16:00N 56°23' E 017°18'710.5
2018-Apr-13 15:21N 56°27' E 017°28'  
Track history (hours):
 
Tides and Currents Weather Stations Pressure Air Temp Water Temp Dewpoint Dewpoint Depression Visibility Wind Speed Wind Dir Waves Ship Positions

Arklow Raider

Last reported at 2018-Apr-23 11:27 UTC. Time now 2018-Apr-23 11:47 UTC.
Position N 43°21' W 003°04'.

Length 90 m; draft 4 m.

Type: Cargo ship. MMSI: 250001268.

Date/timePositionNaut miles runAvg speedWind from/ knotsBaromVisibWave heightAir tempDewpointWater temp
2018-Apr-23 11:27N 43°21' W 003°04'0 0.0
2018-Apr-23 11:00N 43°21' W 003°04'0 0.0
2018-Apr-23 10:30N 43°21' W 003°04'0 0.0
2018-Apr-23 10:00N 43°21' W 003°04'0 0.0
2018-Apr-23 09:24N 43°21' W 003°04'0 0.0
2018-Apr-23 09:00N 43°21' W 003°04'0 0.0
2018-Apr-23 08:30N 43°21' W 003°04'0 0.0
2018-Apr-23 07:57N 43°21' W 003°04'0 0.0
2018-Apr-23 07:30N 43°21' W 003°04'0 0.0
2018-Apr-23 06:57N 43°21' W 003°04'0 0.0
2018-Apr-23 06:30N 43°21' W 003°04'0 0.0
2018-Apr-23 05:57N 43°21' W 003°04'0 0.0
2018-Apr-23 05:27N 43°21' W 003°04'0 0.0
2018-Apr-23 05:00N 43°21' W 003°04'0 0.0
2018-Apr-23 04:27N 43°21' W 003°04'0 0.0
2018-Apr-23 03:57N 43°21' W 003°04'0 0.0
2018-Apr-23 03:30N 43°21' W 003°04'0 0.0
2018-Apr-23 02:57N 43°21' W 003°04'0 0.0
2018-Apr-23 02:30N 43°21' W 003°04'0 0.0
2018-Apr-23 02:00N 43°21' W 003°04'0 0.0
2018-Apr-23 01:30N 43°21' W 003°04'0 0.0
2018-Apr-23 01:00N 43°21' W 003°04'0 0.0
2018-Apr-23 00:27N 43°21' W 003°04'0 0.0
2018-Apr-23 00:00N 43°21' W 003°04'0 0.0
2018-Apr-22 23:30N 43°21' W 003°04'0 0.0
2018-Apr-22 23:00N 43°21' W 003°04'0 0.0
2018-Apr-22 22:30N 43°21' W 003°04'0 0.0
2018-Apr-22 21:57N 43°21' W 003°04'0 0.0
2018-Apr-22 21:30N 43°21' W 003°04'0 0.0
2018-Apr-22 20:57N 43°21' W 003°04'0 0.0
2018-Apr-22 20:30N 43°21' W 003°04'0 0.0
2018-Apr-22 20:00N 43°21' W 003°04'0 0.0
2018-Apr-22 19:30N 43°21' W 003°04'0 0.0
2018-Apr-22 19:00N 43°21' W 003°04'0 0.0
2018-Apr-22 18:30N 43°21' W 003°04'0 0.1
2018-Apr-22 18:00N 43°21' W 003°03'2 3.6
2018-Apr-22 17:30N 43°23' W 003°05'5 9.6
2018-Apr-22 17:00N 43°27' W 003°08'612.2
2018-Apr-22 16:30N 43°32' W 003°12'612.4
2018-Apr-22 16:00N 43°38' W 003°17'612.2
2018-Apr-22 15:30N 43°43' W 003°22'612.2
2018-Apr-22 14:59N 43°48' W 003°26'612.4
2018-Apr-22 14:30N 43°53' W 003°30'15312.6
2018-Apr-22 02:19N 46°05' W 005°22'412.8
2018-Apr-22 02:00N 46°08' W 005°25'612.7
2018-Apr-22 01:30N 46°13' W 005°30'7012.6
2018-Apr-21 19:58N 47°13' W 006°22'23212.2
2018-Apr-21 00:59N 50°31' W 009°25'1111.7
2018-Apr-21 00:01N 50°41' W 009°34'111.9
2018-Apr-20 23:58N 50°41' W 009°35'611.9
2018-Apr-20 23:30N 50°46' W 009°40'2112.1
2018-Apr-20 21:43N 51°05' W 009°57'412.2
2018-Apr-20 21:22N 51°09' W 010°00'612.3
2018-Apr-20 20:51N 51°14' W 010°06'412.3
2018-Apr-20 20:30N 51°18' W 010°09'612.4
2018-Apr-20 20:01N 51°23' W 010°14'712.4
2018-Apr-20 19:28N 51°29' W 010°20'711.9
2018-Apr-20 18:53N 51°35' W 010°26'2411.2
2018-Apr-20 16:44N 51°57' W 010°41'311.1
2018-Apr-20 16:30N 51°59' W 010°42'8 9.8
2018-Apr-20 15:38N 52°07' W 010°39'110.6
2018-Apr-20 15:30N 52°08' W 010°37'510.7
2018-Apr-20 15:00N 52°11' W 010°30'610.9
2018-Apr-20 14:30N 52°15' W 010°23'1111.3
2018-Apr-20 13:30N 52°22' W 010°09'611.4
2018-Apr-20 13:01N 52°25' W 010°01'611.2
2018-Apr-20 12:30N 52°28' W 009°54'711.9
2018-Apr-20 11:57N 52°32' W 009°45'5 0.1
2018-Apr-19 03:06N 52°35' W 009°39'1 7.7
2018-Apr-19 03:00N 52°35' W 009°40'3 6.4
2018-Apr-19 02:29N 52°33' W 009°45'7 7.7
2018-Apr-19 01:31N 52°33' W 009°57'2 9.3
2018-Apr-19 01:19N 52°34' W 009°58'310.3
2018-Apr-19 00:59N 52°38' W 009°59'1811.1
2018-Apr-18 23:23N 52°55' W 010°06'510.8
2018-Apr-18 22:53N 53°00' W 010°08'610.9
2018-Apr-18 22:20N 53°06' W 010°11'410.5
2018-Apr-18 21:59N 53°10' W 010°12'510.2
2018-Apr-18 21:27N 53°15' W 010°14'510.2
2018-Apr-18 20:57N 53°20' W 010°17'4 9.2
2018-Apr-18 20:30N 53°24' W 010°18'5 9.0
2018-Apr-18 20:00N 53°28' W 010°19'5 9.1
2018-Apr-18 19:30N 53°33' W 010°21'5 8.9
2018-Apr-18 18:59N 53°37' W 010°22'4 8.7
2018-Apr-18 18:29N 53°42' W 010°22'4 9.1
2018-Apr-18 18:00N 53°46' W 010°22'5 9.0
2018-Apr-18 17:30N 53°51' W 010°23'4 8.9
2018-Apr-18 17:00N 53°55' W 010°23'5 9.2
2018-Apr-18 16:30N 53°60' W 010°23'5 9.0
2018-Apr-18 16:00N 54°04' W 010°23'5 9.5
2018-Apr-18 15:27N 54°09' W 010°22'4 9.4
2018-Apr-18 15:00N 54°13' W 010°20'5 9.2
2018-Apr-18 14:29N 54°18' W 010°18'5 9.5
2018-Apr-18 13:56N 54°21' W 010°11'5 8.8
2018-Apr-18 13:25N 54°24' W 010°05'5 9.1
2018-Apr-18 12:55N 54°27' W 009°60'4 9.0
2018-Apr-18 12:30N 54°30' W 009°55'5 9.3
2018-Apr-18 11:58N 54°33' W 009°48'5 9.3
2018-Apr-18 11:29N 54°36' W 009°43'8 9.4
2018-Apr-18 10:36N 54°42' W 009°32'3 9.6
2018-Apr-18 10:15N 54°44' W 009°28'4 9.5
2018-Apr-18 09:51N 54°46' W 009°22'4 9.4
2018-Apr-18 09:24N 54°49' W 009°17'25 9.3
2018-Apr-18 06:44N 55°05' W 008°44'2 9.1
2018-Apr-18 06:29N 55°06' W 008°41'6 9.0
2018-Apr-18 05:48N 55°10' W 008°33'3 8.7
2018-Apr-18 05:28N 55°12' W 008°29'4 8.7
2018-Apr-18 04:58N 55°15' W 008°23'5 8.6
2018-Apr-18 04:25N 55°18' W 008°17'4 8.3
2018-Apr-18 03:56N 55°22' W 008°13'7 8.8
2018-Apr-18 03:05N 55°29' W 008°08'3 8.5
2018-Apr-18 02:46N 55°31' W 008°06'236 8.2
2018-Apr-16 21:52N 58°42' W 003°50'12 9.4
2018-Apr-16 20:37N 58°42' W 003°27'1 8.6
2018-Apr-16 20:30N 58°42' W 003°26'4 8.1
2018-Apr-16 20:00N 58°43' W 003°18'4 7.2
2018-Apr-16 19:24N 58°43' W 003°10'2 4.8
2018-Apr-16 19:01N 58°43' W 003°06'3 6.8
2018-Apr-16 18:30N 58°41' W 003°00'5 9.6
2018-Apr-16 18:01N 58°37' W 002°55'5 9.7
2018-Apr-16 17:30N 58°36' W 002°46'510.7
2018-Apr-16 17:01N 58°35' W 002°36'26710.9
2018-Apr-15 16:26N 57°45' E 005°41'510.7
2018-Apr-15 16:00N 57°44' E 005°50'611.1
2018-Apr-15 15:27N 57°43' E 006°01'13010.5
2018-Apr-15 03:06N 57°46' E 010°05'310.5
2018-Apr-15 02:46N 57°46' E 010°11'310.3
2018-Apr-15 02:28N 57°47' E 010°17'510.4
2018-Apr-15 02:00N 57°47' E 010°26'510.5
2018-Apr-15 01:30N 57°48' E 010°36'510.7
2018-Apr-15 01:01N 57°48' E 010°46'510.4
2018-Apr-15 00:30N 57°45' E 010°53'510.4
2018-Apr-15 00:01N 57°41' E 011°01'510.7
2018-Apr-14 23:31N 57°37' E 011°07'510.6
2018-Apr-14 23:00N 57°34' E 011°15'510.6
2018-Apr-14 22:30N 57°30' E 011°22'510.5
2018-Apr-14 22:00N 57°26' E 011°27'510.7
2018-Apr-14 21:30N 57°21' E 011°31'510.6
2018-Apr-14 21:01N 57°16' E 011°34'510.5
2018-Apr-14 20:30N 57°11' E 011°37'510.7
2018-Apr-14 20:00N 57°06' E 011°40'510.8
2018-Apr-14 19:30N 57°01' E 011°44'5910.1
2018-Apr-14 13:38N 56°08' E 012°32'211.9
2018-Apr-14 13:30N 56°06' E 012°34'611.3
2018-Apr-14 13:01N 56°02' E 012°40'510.6
2018-Apr-14 12:31N 55°57' E 012°43'510.5
2018-Apr-14 12:00N 55°52' E 012°44'510.6
2018-Apr-14 11:31N 55°46' E 012°42'510.6
2018-Apr-14 11:01N 55°41' E 012°41'510.2
2018-Apr-14 10:31N 55°36' E 012°42'510.2
2018-Apr-14 10:01N 55°31' E 012°42'510.5
2018-Apr-14 09:31N 55°26' E 012°42'510.7
2018-Apr-14 09:00N 55°20' E 012°41'610.5
2018-Apr-14 08:24N 55°17' E 012°50'510.6
2018-Apr-14 07:55N 55°16' E 012°59'3210.6
2018-Apr-14 04:52N 55°14' E 013°55'410.4
2018-Apr-14 04:27N 55°14' E 014°03'510.9
2018-Apr-14 03:58N 55°14' E 014°12'6 9.8
2018-Apr-14 03:22N 55°17' E 014°21'410.4
2018-Apr-14 03:00N 55°20' E 014°25'510.7
2018-Apr-14 02:30N 55°24' E 014°31'610.4
2018-Apr-14 01:56N 55°28' E 014°39'510.5
2018-Apr-14 01:27N 55°31' E 014°47'710.4
2018-Apr-14 00:45N 55°34' E 014°58'310.5
2018-Apr-14 00:26N 55°36' E 015°03'510.5
2018-Apr-14 00:01N 55°38' E 015°10'510.5
2018-Apr-13 23:30N 55°40' E 015°18'510.6
2018-Apr-13 23:00N 55°43' E 015°26'510.6
2018-Apr-13 22:30N 55°46' E 015°34'510.6
2018-Apr-13 22:01N 55°48' E 015°43'510.7
2018-Apr-13 21:31N 55°51' E 015°51'510.6
2018-Apr-13 21:00N 55°53' E 015°59'510.6
2018-Apr-13 20:30N 55°56' E 016°07'510.6
2018-Apr-13 20:01N 55°59' E 016°16'510.6
2018-Apr-13 19:30N 56°01' E 016°24'510.7
2018-Apr-13 19:00N 56°04' E 016°32'1110.7
2018-Apr-13 18:00N 56°10' E 016°48'510.5
2018-Apr-13 17:30N 56°13' E 016°55'610.5
2018-Apr-13 16:59N 56°17' E 017°03'510.5
2018-Apr-13 16:28N 56°20' E 017°11'510.5
2018-Apr-13 16:00N 56°23' E 017°18'710.5
2018-Apr-13 15:21N 56°27' E 017°28'  

Dump ship's entire track history